메인 페이지
METAR-TAF:

METAR-TAF

공항 :

이스탄불 신공항

이스탄불, 터키

위도: 41-16-31N, 경도: 028-45-07E, 고도: 99m

현재 날씨관측

예보는 30분 전, 19:20시(UTC)에 발표되었습니다.
남서3kt남남서풍과 서북서풍을 오가는
온도 20°C
습도 64%
기압 1012 hPa
시정 10km 이상
1500m 미만 상공 구름 및 적란운 없음

METAR: LTFM 251920Z 23003KT 200V300 CAVOK 20/13 Q1012 NOSIG RMK RWY17L VRB01KT RWY34L 22003KT 190V260 RWY16R 30001KT RWY36 VRB02KT RWY18 VRB02KT

시각: 22:50 (19:50 UTC)

예보

예보는 3 시간 10분 전, 16:40시(UTC)에 발표되었습니다.
예보 대상 시간: 25일 18시부터 26일 24시까지 (UTC)
동남동8kt
시정 10km 이상
1500m 미만 상공 구름 및 적란운 없음
전환 중
25일 18시부터 25일 21시까지 (UTC)
남서10kt
전환 중
25일 22시부터 26일 01시까지 (UTC)
고도 3000ft 상공 구름 보통
고도 10000ft 상공 구름 많음
확률 30% :
일시적
26일 03시부터 26일 07시까지 (UTC)
15kt, 순간 최대 풍속 25kt
고도 1800ft 상공 구름 조금, 적란운.
고도 2500ft 상공 구름 많음
뇌우, 약한비
전환 중
26일 11시부터 26일 14시까지 (UTC)
시정 10km 이상
1500m 미만 상공 구름 및 적란운 없음

TAF: LTFM 251640Z 2518/2624 12008KT CAVOK BECMG 2518/2521 22010KT BECMG 2522/2601 SCT030 BKN100 PROB30 TEMPO 2603/2607 26015G25KT -TSRA FEW018CB BKN025 BECMG 2611/2614 CAVOK

4,000개 이상의 공항 관측 자료 및 예보 (METAR 및 TAF 보고).

지도상에서 검색 가능한 기상관측소가 노란 점과 빨간 점으로 표시되어 있습니다.

기상관측소 명을 보려면 표시 위로 마우스를 이동하세요.

날씨 관측과 예보를 보려면 클릭하세요.

지도 변경 : 확대하려면 엑스 표시가 있는 녹색 버튼, 축소하려면 빼기 표시가 있는 녹색 버튼, 다음 페이지의 지도를 보려면 녹색 화살표를 클릭하세요.


METAR-TAF: